createdAt,value
2022-08-04T00:03:07.308Z,27.33
2022-08-04T00:08:21.959Z,27.74
2022-08-04T00:13:26.475Z,27.93
2022-08-04T00:18:49.296Z,27.56
2022-08-04T00:24:10.610Z,26.97
2022-08-04T00:29:15.527Z,26.90
2022-08-04T00:34:19.337Z,27.00
2022-08-04T00:39:23.008Z,27.42
2022-08-04T00:44:37.977Z,27.50
2022-08-04T00:50:12.295Z,27.63
2022-08-04T00:55:17.931Z,27.37
2022-08-04T01:00:20.616Z,26.92
2022-08-04T01:05:47.339Z,27.37
2022-08-04T01:11:23.695Z,27.51
2022-08-04T01:16:27.798Z,27.24
2022-08-04T01:21:30.369Z,27.34
2022-08-04T01:26:58.593Z,27.58
2022-08-04T01:32:25.795Z,27.63
2022-08-04T01:37:40.409Z,27.55
2022-08-04T01:42:46.219Z,27.55
2022-08-04T01:47:53.595Z,27.58
2022-08-04T01:52:56.641Z,27.55
2022-08-04T01:58:01.347Z,26.94
2022-08-04T02:03:03.853Z,26.45
2022-08-04T02:08:06.258Z,26.76
2022-08-04T02:13:20.682Z,27.09
2022-08-04T02:18:51.896Z,27.22
2022-08-04T02:24:06.383Z,27.13
2022-08-04T02:29:28.185Z,26.50
2022-08-04T02:35:05.784Z,26.54
2022-08-04T02:40:12.136Z,26.98
2022-08-04T02:45:18.697Z,26.87
2022-08-04T02:50:29.173Z,26.89
2022-08-04T02:55:33.893Z,27.03
2022-08-04T03:00:37.534Z,27.08
2022-08-04T03:06:01.735Z,26.95
2022-08-04T03:11:19.571Z,26.94
2022-08-04T03:16:38.523Z,27.00
2022-08-04T03:22:12.049Z,26.81
2022-08-04T03:27:52.305Z,26.46
2022-08-04T03:33:19.591Z,26.64
2022-08-04T03:38:40.065Z,26.46
2022-08-04T03:44:19.521Z,26.75
2022-08-04T03:50:11.268Z,26.79
2022-08-04T03:55:13.642Z,26.55
2022-08-04T04:00:39.453Z,26.60
2022-08-04T04:06:16.923Z,26.69
2022-08-04T04:11:58.402Z,26.48
2022-08-04T04:17:11.592Z,26.50
2022-08-04T04:22:38.860Z,26.63
2022-08-04T04:28:46.552Z,26.69
2022-08-04T04:33:49.664Z,26.55
2022-08-04T04:39:14.009Z,26.46
2022-08-04T04:44:37.651Z,26.59
2022-08-04T04:50:09.815Z,26.68
2022-08-04T04:55:33.860Z,26.65
2022-08-04T05:01:03.432Z,26.76
2022-08-04T05:06:15.302Z,26.66
2022-08-04T05:11:38.543Z,26.75
2022-08-04T05:17:04.365Z,26.85
2022-08-04T05:22:18.614Z,26.93
2022-08-04T05:27:30.563Z,27.02
2022-08-04T05:32:59.940Z,27.08
2022-08-04T05:38:04.652Z,27.05
2022-08-04T05:43:07.393Z,27.10
2022-08-04T05:48:11.132Z,27.20
2022-08-04T05:53:15.744Z,27.19
2022-08-04T05:58:19.925Z,27.32
2022-08-04T06:03:24.042Z,27.45
2022-08-04T06:08:26.716Z,27.38
2022-08-04T06:13:48.996Z,27.50
2022-08-04T06:19:59.256Z,27.60
2022-08-04T06:24:23.957Z,28.01
2022-08-04T06:29:34.262Z,28.35
2022-08-04T06:34:37.429Z,28.27
2022-08-04T06:39:40.021Z,28.39
2022-08-04T06:44:49.428Z,28.82
2022-08-04T06:51:24.793Z,29.14
2022-08-04T06:55:17.125Z,29.43
2022-08-04T07:00:20.104Z,29.55
2022-08-04T07:05:23.362Z,29.89
2022-08-04T07:10:29.695Z,30.16
2022-08-04T07:15:33.051Z,30.13
2022-08-04T07:20:36.981Z,30.56
2022-08-04T07:26:00.536Z,30.71
2022-08-04T07:31:03.366Z,31.01
2022-08-04T07:36:11.570Z,31.21
2022-08-04T07:41:35.927Z,31.39
2022-08-04T07:46:38.911Z,31.92
2022-08-04T07:51:41.505Z,32.32
2022-08-04T07:56:44.920Z,33.01
2022-08-04T08:01:48.310Z,33.13
2022-08-04T08:06:52.497Z,32.93
2022-08-04T08:12:37.481Z,33.81
2022-08-04T08:17:18.030Z,34.05
2022-08-04T08:22:20.609Z,34.71
2022-08-04T08:27:24.028Z,34.98
2022-08-04T08:32:27.627Z,35.64
2022-08-04T08:37:47.708Z,36.10
2022-08-04T08:44:06.441Z,36.01
2022-08-04T08:48:42.083Z,36.61
2022-08-04T08:53:48.646Z,36.89
2022-08-04T08:59:05.950Z,37.00
2022-08-04T09:05:05.357Z,37.16
2022-08-04T09:10:22.767Z,38.07
2022-08-04T09:16:00.650Z,37.08
2022-08-04T09:21:33.916Z,38.32
2022-08-04T09:26:46.838Z,38.07
2022-08-04T09:32:22.556Z,39.13
2022-08-04T09:37:48.579Z,40.20
2022-08-04T09:43:03.022Z,40.92
2022-08-04T09:48:40.383Z,41.37
2022-08-04T09:54:04.176Z,42.44
2022-08-04T09:59:27.245Z,43.09
2022-08-04T10:04:33.635Z,42.71
2022-08-04T10:09:48.813Z,42.50
2022-08-04T10:15:18.778Z,43.43
2022-08-04T10:20:44.339Z,44.12
2022-08-04T10:26:05.708Z,43.34
2022-08-04T10:31:15.917Z,43.28
2022-08-04T10:36:23.974Z,43.11
2022-08-04T10:41:46.621Z,42.53
2022-08-04T10:46:57.524Z,43.94
2022-08-04T10:52:08.634Z,44.44
2022-08-04T10:57:37.863Z,44.38
2022-08-04T11:03:23.530Z,45.74
2022-08-04T11:08:34.648Z,46.43
2022-08-04T11:13:46.955Z,45.75
2022-08-04T11:19:04.035Z,43.91
2022-08-04T11:24:22.819Z,44.71
2022-08-04T11:29:49.994Z,45.36
2022-08-04T11:35:02.160Z,46.16
2022-08-04T11:40:25.005Z,42.73
2022-08-04T11:45:38.038Z,43.97
2022-08-04T11:50:53.074Z,43.39
2022-08-04T11:56:07.526Z,39.01
2022-08-04T12:01:26.856Z,37.95
2022-08-04T12:07:00.407Z,37.74
2022-08-04T12:12:32.616Z,40.79
2022-08-04T12:17:54.471Z,41.07
2022-08-04T12:22:57.516Z,41.50
2022-08-04T12:28:15.776Z,42.97
2022-08-04T12:34:05.810Z,43.25
2022-08-04T12:39:19.750Z,43.47
2022-08-04T12:44:37.000Z,43.09
2022-08-04T12:49:56.248Z,43.84
2022-08-04T12:55:06.188Z,43.44
2022-08-04T13:00:10.442Z,45.36
2022-08-04T13:05:17.209Z,46.58
2022-08-04T13:10:30.195Z,46.92
2022-08-04T13:15:47.270Z,46.08
2022-08-04T13:21:19.846Z,45.95
2022-08-04T13:26:44.384Z,44.50
2022-08-04T13:31:53.022Z,42.25
2022-08-04T13:36:56.865Z,39.98
2022-08-04T13:42:08.023Z,41.35
2022-08-04T13:47:19.457Z,39.92
2022-08-04T13:52:26.508Z,40.44
2022-08-04T13:57:35.910Z,43.21
2022-08-04T14:02:49.983Z,42.32
2022-08-04T14:08:01.215Z,42.04
2022-08-04T14:13:05.945Z,42.26
2022-08-04T14:18:21.252Z,43.17
2022-08-04T14:23:23.844Z,42.31
2022-08-04T14:29:27.690Z,42.40
2022-08-04T14:33:56.813Z,42.45
2022-08-04T14:39:07.825Z,43.13
2022-08-04T14:44:10.502Z,42.64
2022-08-04T14:49:13.905Z,42.73
2022-08-04T14:54:18.835Z,41.20
2022-08-04T14:59:22.306Z,40.63
2022-08-04T15:04:26.047Z,40.86
2022-08-04T15:09:28.923Z,41.40
2022-08-04T15:14:37.200Z,41.28
2022-08-04T15:19:40.923Z,41.17
2022-08-04T15:24:58.553Z,41.25
2022-08-04T15:30:04.450Z,40.99
2022-08-04T15:35:12.693Z,41.00
2022-08-04T15:40:37.393Z,40.34
2022-08-04T15:46:41.173Z,39.63
2022-08-04T15:51:31.983Z,39.43
2022-08-04T15:56:48.473Z,39.35
2022-08-04T16:02:33.254Z,37.96
2022-08-04T16:07:56.855Z,37.05
2022-08-04T16:13:05.065Z,37.21
2022-08-04T16:18:13.751Z,36.95
2022-08-04T16:23:55.930Z,35.90
2022-08-04T16:28:59.651Z,36.09
2022-08-04T16:34:50.282Z,36.41
2022-08-04T16:39:25.094Z,36.44
2022-08-04T16:44:53.052Z,36.52
2022-08-04T16:50:03.063Z,36.50
2022-08-04T16:55:06.104Z,36.43
2022-08-04T17:00:09.699Z,36.60
2022-08-04T17:05:38.956Z,36.50
2022-08-04T17:10:45.996Z,36.61
2022-08-04T17:15:53.337Z,36.55
2022-08-04T17:21:02.003Z,36.27
2022-08-04T17:26:06.870Z,35.87
2022-08-04T17:31:14.821Z,35.84
2022-08-04T17:36:18.419Z,35.70
2022-08-04T17:41:30.587Z,35.69
2022-08-04T17:46:48.202Z,35.66
2022-08-04T17:52:06.441Z,35.72
2022-08-04T17:57:22.102Z,35.55
2022-08-04T18:02:32.832Z,35.27
2022-08-04T18:08:38.249Z,35.08
2022-08-04T18:13:13.837Z,34.81
2022-08-04T18:18:23.629Z,34.59
2022-08-04T18:23:31.499Z,34.47
2022-08-04T18:28:36.140Z,34.33
2022-08-04T18:33:41.361Z,34.10
2022-08-04T18:38:55.647Z,33.97
2022-08-04T18:44:01.857Z,33.79
2022-08-04T18:49:06.062Z,33.54
2022-08-04T18:54:08.764Z,33.40
2022-08-04T18:59:11.304Z,33.18
2022-08-04T19:04:33.058Z,32.89
2022-08-04T19:09:51.399Z,32.62
2022-08-04T19:15:08.900Z,32.53
2022-08-04T19:20:24.374Z,32.50
2022-08-04T19:26:01.681Z,32.34
2022-08-04T19:30:51.342Z,32.24
2022-08-04T19:35:54.599Z,32.26
2022-08-04T19:40:58.404Z,32.17
2022-08-04T19:46:01.146Z,32.11
2022-08-04T19:51:03.732Z,32.03
2022-08-04T19:56:07.227Z,32.01
2022-08-04T20:01:31.262Z,31.90
2022-08-04T20:06:33.070Z,31.74
2022-08-04T20:11:35.529Z,31.59
2022-08-04T20:16:38.046Z,31.51
2022-08-04T20:21:55.059Z,31.15
2022-08-04T20:26:58.916Z,31.08
2022-08-04T20:32:05.405Z,31.27
2022-08-04T20:37:10.091Z,31.24
2022-08-04T20:42:13.117Z,31.26
2022-08-04T20:47:16.300Z,31.29
2022-08-04T20:52:20.823Z,31.19
2022-08-04T20:57:48.577Z,31.09
2022-08-04T21:02:46.144Z,31.03
2022-08-04T21:07:49.073Z,31.07
2022-08-04T21:12:51.620Z,31.01
2022-08-04T21:17:57.995Z,31.03
2022-08-04T21:23:07.391Z,30.84
2022-08-04T21:28:10.263Z,30.60
2022-08-04T21:33:13.089Z,30.70
2022-08-04T21:38:18.274Z,30.77
2022-08-04T21:43:23.704Z,30.77
2022-08-04T21:48:30.001Z,30.46
2022-08-04T21:53:32.515Z,30.38
2022-08-04T21:58:36.889Z,30.52
2022-08-04T22:03:52.417Z,30.57
2022-08-04T22:08:57.271Z,30.46
2022-08-04T22:14:11.215Z,30.34
2022-08-04T22:19:14.101Z,30.35
2022-08-04T22:24:25.764Z,30.31
2022-08-04T22:29:39.137Z,30.18
2022-08-04T22:34:45.605Z,30.11
2022-08-04T22:39:56.869Z,30.10
2022-08-04T22:44:59.771Z,30.00
2022-08-04T22:50:26.781Z,29.91
2022-08-04T22:55:26.825Z,29.75
2022-08-04T23:00:52.950Z,29.56
2022-08-04T23:05:56.666Z,29.49
2022-08-04T23:10:59.351Z,29.46
2022-08-04T23:16:09.964Z,29.51
2022-08-04T23:21:13.993Z,29.38
2022-08-04T23:26:16.939Z,29.26
2022-08-04T23:31:19.397Z,29.16
2022-08-04T23:36:29.429Z,28.98
2022-08-04T23:41:53.739Z,29.05
2022-08-04T23:47:01.891Z,29.19
2022-08-04T23:52:05.563Z,29.22
2022-08-04T23:57:16.135Z,29.25
